Dimitris — SVA3557 — position and weather

sailwx.info

Track history (hours):
 
Tides and Currents Weather Stations Pressure Air Temp Water Temp Dewpoint Dewpoint Depression Visibility Wind Speed Wind Dir Waves Ship Positions

Dimitris

Last reported at 2017-Dec-11 13:00 UTC. Time now 2017-Dec-11 13:15 UTC.
Position N 38°11' E 024°08'.

Length 76 m; draft 2.4 m.

Type: Passenger vessel. MMSI: 239710200.

Date/timePositionNaut miles runAvg speedWind from/ knotsBaromVisibWave heightAir tempDewpointWater temp
2017-Dec-11 13:00N 38°11' E 024°08'1 1.4
2017-Dec-11 12:05N 38°11' E 024°06'1 9.6
2017-Dec-11 12:00N 38°11' E 024°07'1 0.2
2017-Dec-11 09:08N 38°11' E 024°08'2 2.1
2017-Dec-11 08:09N 38°11' E 024°05'210.0
2017-Dec-11 07:58N 38°11' E 024°07'2 1.5
2017-Dec-11 06:33N 38°11' E 024°10'110.0
2017-Dec-11 06:28N 38°11' E 024°09'2 1.7
2017-Dec-11 05:05N 38°11' E 024°06'1 9.8
2017-Dec-11 05:00N 38°11' E 024°07'4 0.4
2017-Dec-10 17:36N 38°11' E 024°12'310.1
2017-Dec-10 17:21N 38°11' E 024°09'2 2.6
2017-Dec-10 16:33N 38°10' E 024°06'110.1
2017-Dec-10 16:30N 38°10' E 024°07'4 3.9
2017-Dec-10 15:26N 38°11' E 024°12'4 9.6
2017-Dec-10 15:00N 38°11' E 024°07'1 1.0
2017-Dec-10 14:19N 38°11' E 024°06'3 9.5
2017-Dec-10 14:00N 38°11' E 024°10'0 0.0
2017-Dec-10 13:03N 38°11' E 024°10'110.3
2017-Dec-10 13:00N 38°11' E 024°09'3 2.9
2017-Dec-10 12:06N 38°11' E 024°06'1 9.7
2017-Dec-10 12:00N 38°10' E 024°07'4 5.9
2017-Dec-10 11:19N 38°11' E 024°12'3 9.7
2017-Dec-10 11:00N 38°11' E 024°08'2 2.2
2017-Dec-10 10:08N 38°11' E 024°06'1 9.1
2017-Dec-10 10:00N 38°11' E 024°07'4 0.2
2017-Dec-09 17:16N 38°11' E 024°12'310.0
2017-Dec-09 17:00N 38°11' E 024°09'2 2.8
2017-Dec-09 16:07N 38°10' E 024°06'1 9.6
2017-Dec-09 16:00N 38°10' E 024°07'4 5.2
2017-Dec-09 15:14N 38°11' E 024°12'210.1
2017-Dec-09 15:00N 38°11' E 024°09'2 2.6
2017-Dec-09 14:06N 38°10' E 024°06'1 8.6
2017-Dec-09 13:58N 38°10' E 024°08'3 4.8
2017-Dec-09 13:15N 38°11' E 024°12'310.2
2017-Dec-09 13:00N 38°11' E 024°09'2 2.7
2017-Dec-09 12:07N 38°10' E 024°06'1 9.5
2017-Dec-09 12:00N 38°10' E 024°07'4 5.1
2017-Dec-09 11:14N 38°11' E 024°12'310.1
2017-Dec-09 11:00N 38°11' E 024°09'2 2.2
2017-Dec-09 10:03N 38°11' E 024°06'1 9.5
2017-Dec-09 09:59N 38°11' E 024°07'4 5.2
2017-Dec-09 09:13N 38°11' E 024°12'310.1
2017-Dec-09 08:55N 38°11' E 024°08'2 1.8
2017-Dec-09 07:55N 38°10' E 024°06'5 9.2
2017-Dec-09 07:24N 38°11' E 024°12'0 0.1
2017-Dec-09 07:00N 38°11' E 024°12'5 2.8
2017-Dec-09 05:19N 38°11' E 024°06'5 9.9
2017-Dec-09 04:51N 38°11' E 024°12'0 0.0
2017-Dec-08 18:01N 38°11' E 024°12'0 7.3
2017-Dec-08 18:01N 38°11' E 024°12'5 3.3
2017-Dec-08 16:35N 38°10' E 024°06'2 8.7
2017-Dec-08 16:19N 38°11' E 024°09'3 4.5
2017-Dec-08 15:46N 38°11' E 024°12'3 9.8
2017-Dec-08 15:30N 38°11' E 024°09'2 1.8
2017-Dec-08 14:19N 38°11' E 024°06'5 9.5
2017-Dec-08 13:49N 38°11' E 024°12'2 4.0
2017-Dec-08 13:22N 38°11' E 024°10'3 2.4
2017-Dec-08 12:04N 38°11' E 024°06'110.0
2017-Dec-08 12:00N 38°11' E 024°07'4 1.9
2017-Dec-08 09:48N 38°11' E 024°12'0 0.5
2017-Dec-08 09:29N 38°11' E 024°12'510.1
2017-Dec-08 09:00N 38°11' E 024°06'2 2.2
2017-Dec-08 08:14N 38°11' E 024°04'210.1
2017-Dec-08 08:00N 38°11' E 024°07'4 8.1
2017-Dec-08 07:27N 38°11' E 024°12'0 0.0
2017-Dec-08 06:45N 38°11' E 024°12'3 9.7
2017-Dec-08 06:30N 38°11' E 024°09'4 4.8
2017-Dec-08 05:35N 38°11' E 024°04'0 0.7
2017-Dec-08 05:15N 38°11' E 024°04'3 9.9
2017-Dec-08 04:59N 38°11' E 024°07'2 0.2
2017-Dec-07 17:04N 38°11' E 024°10'110.3
2017-Dec-07 17:00N 38°11' E 024°09'2 2.6
2017-Dec-07 16:04N 38°11' E 024°06'110.1
2017-Dec-07 15:59N 38°11' E 024°07'4 7.0
2017-Dec-07 15:25N 38°11' E 024°12'410.1
2017-Dec-07 14:59N 38°11' E 024°07'0 0.3
2017-Dec-07 14:09N 38°11' E 024°07'110.0
2017-Dec-07 14:00N 38°11' E 024°08'3 4.5
2017-Dec-07 13:18N 38°11' E 024°12'4 9.9
2017-Dec-07 12:57N 38°11' E 024°08'1 1.8
2017-Dec-07 12:08N 38°11' E 024°06'110.2
2017-Dec-07 12:00N 38°11' E 024°08'2 0.8
2017-Dec-07 09:20N 38°11' E 024°10'3 2.5
2017-Dec-07 08:04N 38°11' E 024°06'1 9.8
2017-Dec-07 08:00N 38°11' E 024°07'4 3.3
2017-Dec-07 06:43N 38°11' E 024°12'310.2
2017-Dec-07 06:28N 38°11' E 024°09'2 1.6
2017-Dec-07 05:04N 38°11' E 024°06'1 9.9
2017-Dec-07 05:00N 38°11' E 024°07'  
2017-Dec-04 09:32N 38°11' E 024°12'210.0
2017-Dec-04 09:22N 38°11' E 024°10'3 2.6
2017-Dec-04 08:07N 38°11' E 024°06'1 9.9
2017-Dec-04 08:00N 38°11' E 024°07'4 3.1
2017-Dec-04 06:44N 38°11' E 024°12'410.3
2017-Dec-04 06:22N 38°11' E 024°07'1 0.8
2017-Dec-04 05:06N 38°11' E 024°06'1 9.6
2017-Dec-04 05:00N 38°11' E 024°07'4 0.3
2017-Dec-03 17:40N 38°11' E 024°12'210.0
2017-Dec-03 17:30N 38°11' E 024°10'3 3.3
2017-Dec-03 16:36N 38°10' E 024°06'1 7.8
2017-Dec-03 16:30N 38°10' E 024°07'4 3.6
2017-Dec-03 15:29N 38°11' E 024°12'4 9.1
2017-Dec-03 15:00N 38°11' E 024°06'0 0.6
2017-Dec-03 14:26N 38°11' E 024°06'5 8.7
2017-Dec-03 13:52N 38°11' E 024°12'0 0.0
2017-Dec-02 17:40N 38°11' E 024°12'0 0.0
2017-Dec-02 17:30N 38°11' E 024°12'0 0.0
2017-Dec-02 16:53N 38°11' E 024°12'0 0.0
2017-Dec-02 16:30N 38°11' E 024°12'0 0.0
2017-Dec-02 16:00N 38°11' E 024°12'0 0.0
2017-Dec-02 15:29N 38°11' E 024°12'0 0.0
2017-Dec-02 14:08N 38°11' E 024°12'0 0.0
2017-Dec-02 13:58N 38°11' E 024°12'0 0.0
2017-Dec-02 13:30N 38°11' E 024°12'0 0.0
2017-Dec-02 13:00N 38°11' E 024°12'0 0.0
2017-Dec-02 12:29N 38°11' E 024°12'0 0.0
2017-Dec-02 11:35N 38°11' E 024°12'0 0.0
2017-Dec-02 11:30N 38°11' E 024°12'0 0.0
2017-Dec-02 10:17N 38°11' E 024°12'0 0.0
2017-Dec-02 10:00N 38°11' E 024°12'0 0.0
2017-Dec-02 09:28N 38°11' E 024°12'0 0.0
2017-Dec-02 09:00N 38°11' E 024°12'0 0.0
2017-Dec-02 08:30N 38°11' E 024°12'0 0.0
2017-Dec-01 21:22N 38°11' E 024°12'0 0.0
2017-Dec-01 20:42N 38°11' E 024°12'  
Track history (hours):
 
Tides and Currents Weather Stations Pressure Air Temp Water Temp Dewpoint Dewpoint Depression Visibility Wind Speed Wind Dir Waves Ship Positions

Dimitris

Last reported at 2017-Dec-11 13:00 UTC. Time now 2017-Dec-11 13:15 UTC.
Position N 38°11' E 024°08'.

Length 76 m; draft 2.4 m.

Type: Passenger vessel. MMSI: 239710200.

Date/timePositionNaut miles runAvg speedWind from/ knotsBaromVisibWave heightAir tempDewpointWater temp
2017-Dec-11 13:00N 38°11' E 024°08'1 1.4
2017-Dec-11 12:05N 38°11' E 024°06'1 9.6
2017-Dec-11 12:00N 38°11' E 024°07'1 0.2
2017-Dec-11 09:08N 38°11' E 024°08'2 2.1
2017-Dec-11 08:09N 38°11' E 024°05'210.0
2017-Dec-11 07:58N 38°11' E 024°07'2 1.5
2017-Dec-11 06:33N 38°11' E 024°10'110.0
2017-Dec-11 06:28N 38°11' E 024°09'2 1.7
2017-Dec-11 05:05N 38°11' E 024°06'1 9.8
2017-Dec-11 05:00N 38°11' E 024°07'4 0.4
2017-Dec-10 17:36N 38°11' E 024°12'310.1
2017-Dec-10 17:21N 38°11' E 024°09'2 2.6
2017-Dec-10 16:33N 38°10' E 024°06'110.1
2017-Dec-10 16:30N 38°10' E 024°07'4 3.9
2017-Dec-10 15:26N 38°11' E 024°12'4 9.6
2017-Dec-10 15:00N 38°11' E 024°07'1 1.0
2017-Dec-10 14:19N 38°11' E 024°06'3 9.5
2017-Dec-10 14:00N 38°11' E 024°10'0 0.0
2017-Dec-10 13:03N 38°11' E 024°10'110.3
2017-Dec-10 13:00N 38°11' E 024°09'3 2.9
2017-Dec-10 12:06N 38°11' E 024°06'1 9.7
2017-Dec-10 12:00N 38°10' E 024°07'4 5.9
2017-Dec-10 11:19N 38°11' E 024°12'3 9.7
2017-Dec-10 11:00N 38°11' E 024°08'2 2.2
2017-Dec-10 10:08N 38°11' E 024°06'1 9.1
2017-Dec-10 10:00N 38°11' E 024°07'4 0.2
2017-Dec-09 17:16N 38°11' E 024°12'310.0
2017-Dec-09 17:00N 38°11' E 024°09'2 2.8
2017-Dec-09 16:07N 38°10' E 024°06'1 9.6
2017-Dec-09 16:00N 38°10' E 024°07'4 5.2
2017-Dec-09 15:14N 38°11' E 024°12'210.1
2017-Dec-09 15:00N 38°11' E 024°09'2 2.6
2017-Dec-09 14:06N 38°10' E 024°06'1 8.6
2017-Dec-09 13:58N 38°10' E 024°08'3 4.8
2017-Dec-09 13:15N 38°11' E 024°12'310.2
2017-Dec-09 13:00N 38°11' E 024°09'2 2.7
2017-Dec-09 12:07N 38°10' E 024°06'1 9.5
2017-Dec-09 12:00N 38°10' E 024°07'4 5.1
2017-Dec-09 11:14N 38°11' E 024°12'310.1
2017-Dec-09 11:00N 38°11' E 024°09'2 2.2
2017-Dec-09 10:03N 38°11' E 024°06'1 9.5
2017-Dec-09 09:59N 38°11' E 024°07'4 5.2
2017-Dec-09 09:13N 38°11' E 024°12'310.1
2017-Dec-09 08:55N 38°11' E 024°08'2 1.8
2017-Dec-09 07:55N 38°10' E 024°06'5 9.2
2017-Dec-09 07:24N 38°11' E 024°12'0 0.1
2017-Dec-09 07:00N 38°11' E 024°12'5 2.8
2017-Dec-09 05:19N 38°11' E 024°06'5 9.9
2017-Dec-09 04:51N 38°11' E 024°12'0 0.0
2017-Dec-08 18:01N 38°11' E 024°12'0 7.3
2017-Dec-08 18:01N 38°11' E 024°12'5 3.3
2017-Dec-08 16:35N 38°10' E 024°06'2 8.7
2017-Dec-08 16:19N 38°11' E 024°09'3 4.5
2017-Dec-08 15:46N 38°11' E 024°12'3 9.8
2017-Dec-08 15:30N 38°11' E 024°09'2 1.8
2017-Dec-08 14:19N 38°11' E 024°06'5 9.5
2017-Dec-08 13:49N 38°11' E 024°12'2 4.0
2017-Dec-08 13:22N 38°11' E 024°10'3 2.4
2017-Dec-08 12:04N 38°11' E 024°06'110.0
2017-Dec-08 12:00N 38°11' E 024°07'4 1.9
2017-Dec-08 09:48N 38°11' E 024°12'0 0.5
2017-Dec-08 09:29N 38°11' E 024°12'510.1
2017-Dec-08 09:00N 38°11' E 024°06'2 2.2
2017-Dec-08 08:14N 38°11' E 024°04'210.1
2017-Dec-08 08:00N 38°11' E 024°07'4 8.1
2017-Dec-08 07:27N 38°11' E 024°12'0 0.0
2017-Dec-08 06:45N 38°11' E 024°12'3 9.7
2017-Dec-08 06:30N 38°11' E 024°09'4 4.8
2017-Dec-08 05:35N 38°11' E 024°04'0 0.7
2017-Dec-08 05:15N 38°11' E 024°04'3 9.9
2017-Dec-08 04:59N 38°11' E 024°07'2 0.2
2017-Dec-07 17:04N 38°11' E 024°10'110.3
2017-Dec-07 17:00N 38°11' E 024°09'2 2.6
2017-Dec-07 16:04N 38°11' E 024°06'110.1
2017-Dec-07 15:59N 38°11' E 024°07'4 7.0
2017-Dec-07 15:25N 38°11' E 024°12'410.1
2017-Dec-07 14:59N 38°11' E 024°07'0 0.3
2017-Dec-07 14:09N 38°11' E 024°07'110.0
2017-Dec-07 14:00N 38°11' E 024°08'3 4.5
2017-Dec-07 13:18N 38°11' E 024°12'4 9.9
2017-Dec-07 12:57N 38°11' E 024°08'1 1.8
2017-Dec-07 12:08N 38°11' E 024°06'110.2
2017-Dec-07 12:00N 38°11' E 024°08'2 0.8
2017-Dec-07 09:20N 38°11' E 024°10'3 2.5
2017-Dec-07 08:04N 38°11' E 024°06'1 9.8
2017-Dec-07 08:00N 38°11' E 024°07'4 3.3
2017-Dec-07 06:43N 38°11' E 024°12'310.2
2017-Dec-07 06:28N 38°11' E 024°09'2 1.6
2017-Dec-07 05:04N 38°11' E 024°06'1 9.9
2017-Dec-07 05:00N 38°11' E 024°07'  
2017-Dec-04 09:32N 38°11' E 024°12'210.0
2017-Dec-04 09:22N 38°11' E 024°10'3 2.6
2017-Dec-04 08:07N 38°11' E 024°06'1 9.9
2017-Dec-04 08:00N 38°11' E 024°07'4 3.1
2017-Dec-04 06:44N 38°11' E 024°12'410.3
2017-Dec-04 06:22N 38°11' E 024°07'1 0.8
2017-Dec-04 05:06N 38°11' E 024°06'1 9.6
2017-Dec-04 05:00N 38°11' E 024°07'4 0.3
2017-Dec-03 17:40N 38°11' E 024°12'210.0
2017-Dec-03 17:30N 38°11' E 024°10'3 3.3
2017-Dec-03 16:36N 38°10' E 024°06'1 7.8
2017-Dec-03 16:30N 38°10' E 024°07'4 3.6
2017-Dec-03 15:29N 38°11' E 024°12'4 9.1
2017-Dec-03 15:00N 38°11' E 024°06'0 0.6
2017-Dec-03 14:26N 38°11' E 024°06'5 8.7
2017-Dec-03 13:52N 38°11' E 024°12'0 0.0
2017-Dec-02 17:40N 38°11' E 024°12'0 0.0
2017-Dec-02 17:30N 38°11' E 024°12'0 0.0
2017-Dec-02 16:53N 38°11' E 024°12'0 0.0
2017-Dec-02 16:30N 38°11' E 024°12'0 0.0
2017-Dec-02 16:00N 38°11' E 024°12'0 0.0
2017-Dec-02 15:29N 38°11' E 024°12'0 0.0
2017-Dec-02 14:08N 38°11' E 024°12'0 0.0
2017-Dec-02 13:58N 38°11' E 024°12'0 0.0
2017-Dec-02 13:30N 38°11' E 024°12'0 0.0
2017-Dec-02 13:00N 38°11' E 024°12'0 0.0
2017-Dec-02 12:29N 38°11' E 024°12'0 0.0
2017-Dec-02 11:35N 38°11' E 024°12'0 0.0
2017-Dec-02 11:30N 38°11' E 024°12'0 0.0
2017-Dec-02 10:17N 38°11' E 024°12'0 0.0
2017-Dec-02 10:00N 38°11' E 024°12'0 0.0
2017-Dec-02 09:28N 38°11' E 024°12'0 0.0
2017-Dec-02 09:00N 38°11' E 024°12'0 0.0
2017-Dec-02 08:30N 38°11' E 024°12'0 0.0
2017-Dec-01 21:22N 38°11' E 024°12'0 0.0
2017-Dec-01 20:42N 38°11' E 024°12'  

Dump ship's entire track history